Vn Rebel _ — ILBR — position and weather

sailwx.info

Track history (hours):
 
Tides and Currents Weather Stations Pressure Air Temp Water Temp Dewpoint Dewpoint Depression Visibility Wind Speed Wind Dir Waves Ship Positions

Vn Rebel _

Last reported at 2015-Nov-09 13:33 UTC. Time now 2016-Jun-29 02:02 UTC.
Position N 43°07' E 005°55'.
Warning: this ship's position is months out of date.

Length 45 m; draft 2.4 m.

MMSI: 247010300.

Date/timePositionNaut miles runAvg speedWind from/ knotsBaromVisibWave heightAir tempDewpointWater temp
2015-Nov-09 13:33N 43°07' E 005°55'0 0.0
2015-Nov-09 12:33N 43°07' E 005°55'2 1.7
2015-Nov-09 11:33N 43°06' E 005°55'5 1.7
2015-Nov-09 08:33N 43°04' E 006°02'0 0.2
2015-Nov-09 07:33N 43°04' E 006°02'6 5.7
2015-Nov-09 06:33N 43°07' E 005°55'0 0.1
2015-Nov-09 05:33N 43°07' E 005°55'  
2015-Nov-05 20:26N 43°07' E 005°55'4 4.3
2015-Nov-05 19:33N 43°04' E 005°59'6 0.5
2015-Nov-05 06:12N 42°59' E 005°55'5 8.4
2015-Nov-05 05:33N 43°04' E 005°57'  
2015-Oct-30 18:15N 43°07' E 005°55'1 0.8
2015-Oct-30 17:33N 43°07' E 005°55'3 3.1
2015-Oct-30 16:33N 43°05' E 005°58'  
Track history (hours):
 
Tides and Currents Weather Stations Pressure Air Temp Water Temp Dewpoint Dewpoint Depression Visibility Wind Speed Wind Dir Waves Ship Positions

Vn Rebel _

Last reported at 2015-Nov-09 13:33 UTC. Time now 2016-Jun-29 02:02 UTC.
Position N 43°07' E 005°55'.
Warning: this ship's position is months out of date.

Length 45 m; draft 2.4 m.

MMSI: 247010300.

Date/timePositionNaut miles runAvg speedWind from/ knotsBaromVisibWave heightAir tempDewpointWater temp
2015-Nov-09 13:33N 43°07' E 005°55'0 0.0
2015-Nov-09 12:33N 43°07' E 005°55'2 1.7
2015-Nov-09 11:33N 43°06' E 005°55'5 1.7
2015-Nov-09 08:33N 43°04' E 006°02'0 0.2
2015-Nov-09 07:33N 43°04' E 006°02'6 5.7
2015-Nov-09 06:33N 43°07' E 005°55'0 0.1
2015-Nov-09 05:33N 43°07' E 005°55'  
2015-Nov-05 20:26N 43°07' E 005°55'4 4.3
2015-Nov-05 19:33N 43°04' E 005°59'6 0.5
2015-Nov-05 06:12N 42°59' E 005°55'5 8.4
2015-Nov-05 05:33N 43°04' E 005°57'  
2015-Oct-30 18:15N 43°07' E 005°55'1 0.8
2015-Oct-30 17:33N 43°07' E 005°55'3 3.1
2015-Oct-30 16:33N 43°05' E 005°58'  

Dump ship's entire track history